This is the latest recevied weather packets stored in our database for station/object AA7VG. If no packets are shown the sender has not sent any weather packets the latest 1 day(s).
| Time | Temp. | Humidity | Pressure | Rain* | Wind** | Luminosity | Snow |
|---|---|---|---|---|---|---|---|
| 1778017931 | 9.44° C | 32% | 1014.7 hPa | 0 mm | 0.89 m/s, 333° | - | - |
| 1778017629 | 9.44° C | 33% | 1015 hPa | 0 mm | 0.89 m/s, 340° | - | - |
| 1778017326 | 9.44° C | 34% | 1014.7 hPa | 0 mm | 0 m/s | - | - |
| 1778017023 | 8.89° C | 36% | 1015 hPa | 0 mm | 0.45 m/s, 152° | - | - |
| 1778016720 | 8.89° C | 35% | 1015 hPa | 0 mm | 1.34 m/s, 176° | - | - |
| 1778016416 | 9.44° C | 36% | 1015.2 hPa | 0 mm | 0.89 m/s, 5° | - | - |
| 1778016114 | 10.56° C | 33% | 1015.1 hPa | 0 mm | 1.79 m/s, 313° | - | - |
| 1778015810 | 10° C | 33% | 1015 hPa | 0 mm | 2.24 m/s, 294° | - | - |
| 1778015508 | 10.56° C | 32% | 1015 hPa | 0 mm | 1.34 m/s, 299° | - | - |
| 1778015204 | 10.56° C | 33% | 1015.2 hPa | 0 mm | 0.89 m/s, 314° | - | - |
| 1778014901 | 10.56° C | 34% | 1015.2 hPa | 0 mm | 0.89 m/s, 309° | - | - |
| 1778014598 | 9.44° C | 33% | 1015.3 hPa | 0 mm | 0 m/s | - | - |
| 1778014297 | 10° C | 32% | 1015.3 hPa | 0 mm | 0.89 m/s, 324° | - | - |
| 1778014003 | 11.11° C | 32% | 1015.1 hPa | 0 mm | 1.79 m/s, 312° | - | - |
| 1778013691 | 11.11° C | 32% | 1015.1 hPa | 0 mm | 0.89 m/s, 297° | - | - |
| 1778013388 | 10.56° C | 33% | 1015.1 hPa | 0 mm | 1.79 m/s, 313° | - | - |
| 1778013085 | 9.44° C | 34% | 1015.1 hPa | 0 mm | 2.24 m/s, 321° | - | - |
| 1778012780 | 10.56° C | 32% | 1015.2 hPa | 0 mm | 2.24 m/s, 314° | - | - |
| 1778012476 | 11.11° C | 33% | 1015.3 hPa | 0 mm | 1.79 m/s, 314° | - | - |
| 1778012173 | 11.67° C | 31% | 1015.3 hPa | 0 mm | 2.24 m/s, 326° | - | - |
| 1778011871 | 11.11° C | 29% | 1015.2 hPa | 0 mm | 0.89 m/s, 29° | - | - |
| 1778011569 | 10° C | 34% | 1015.4 hPa | 0 mm | 1.34 m/s, 343° | - | - |
| 1778011266 | 9.44° C | 33% | 1015.3 hPa | 0 mm | 2.68 m/s, 341° | - | - |
| 1778010961 | 9.44° C | 34% | 1015.4 hPa | 0 mm | 1.79 m/s, 330° | - | - |
| 1778010659 | 9.44° C | 34% | 1015.3 hPa | 0 mm | 2.24 m/s, 339° | - | - |
* Rain latest hour (hover to see other rain measurements)
** Current wind speed in m/s (hover to see current wind gust speed)